Weather observations for the past three days for
Mount Pleasant, Mount Pleasant Municipal Airport
Imperial (Metric)
Date Time (cdt) Wind (mph) Vis. (mi.) Weather Sky Cond. Temperature (ºF) Relative Humidity Wind Chill (°F) Heat Index (°F) Pressure Precipitation (in)
Air Dwpt 6 hour altimeter (in) sea level (mb) 1 hr 3 hr 6 hr
Max. Min.
10 09:35 N 7 10.00 Fair CLR 57.2 30.2 36% 30.14 0.0
10 09:15 N 7 10.00 Fair CLR 55.4 30.2 38% 30.13 0.0
10 08:55 N 9 10.00 Fair CLR 55.4 32 41% 30.13 0.0
10 08:35 N 8 10.00 Fair CLR 53.6 32 44% 30.13 0.0
10 08:15 N 9 10.00 Fair CLR 51.8 30.2 44% 30.12 0.0
10 07:55 N 8 10.00 Fair CLR 50 30.2 47% 47 30.13 0.0
10 07:35 NW 6 10.00 Fair CLR 48.2 30.2 50% 46 30.13 0.0
10 07:15 NW 6 10.00 Fair CLR 46.4 30.2 53% 44 30.13 0.0
10 06:55 NW 5 10.00 Fair CLR 44.6 28.4 53% 43 30.11 0.0
10 06:35 NW 5 10.00 Fair CLR 44.6 28.4 53% 43 30.09 0.0
10 06:15 NW 8 10.00 Fair CLR 44.6 28.4 53% 41 30.08 0.0
10 05:55 NW 8 10.00 Fair CLR 42.8 28.4 57% 39 30.07 0.0
10 05:35 NW 7 10.00 Fair CLR 42.8 28.4 57% 39 30.07 0.0
10 05:15 N 7 10.00 Fair CLR 44.6 28.4 53% 41 30.06 0.0
10 04:35 NW 7 10.00 Fair CLR 44.6 28.4 53% 41 30.04 0.0
10 04:15 N 8 10.00 Fair CLR 44.6 30.2 57% 41 30.03 0.0
10 03:55 NW 8 10.00 Fair CLR 44.6 30.2 57% 41 30.03 0.0
10 03:35 N 8 10.00 Fair CLR 46.4 30.2 53% 43 30.01 0.0
10 03:15 NW 7 10.00 Fair CLR 46.4 30.2 53% 43 30.01 0.0
10 02:35 N 7 10.00 Fair CLR 46.4 30.2 53% 43 29.99 0.0
10 02:15 N 8 10.00 Fair CLR 46.4 30.2 53% 43 30 0.0
10 01:55 N 6 10.00 Fair CLR 50 30.2 47% 48 30 0.0
10 01:35 N 6 10.00 Fair CLR 50 30.2 47% 48 29.99 0.0
10 01:15 N 7 10.00 Fair CLR 50 30.2 47% 48 29.98 0.0
10 00:55 N 7 10.00 Fair CLR 51.8 30.2 44% 29.98 0.0
10 00:35 N 9 10.00 Fair CLR 50 32 50% 47 29.96 0.0
10 00:15 N 8 7.00 Fair CLR 50 32 50% 47 29.95 0.0
09 23:55 N 8 10.00 Fair CLR 51.8 32 47% 29.94 0.0
09 23:35 N 7 10.00 Fair CLR 53.6 32 44% 29.94 0.0
09 23:15 N 7 10.00 Fair CLR 55.4 32 41% 29.93 0.0
09 22:55 N 9 10.00 Fair CLR 55.4 32 41% 29.93 0.0
09 22:35 N 10 10.00 Fair CLR 59 32 36% 29.92 0.0
09 22:15 N 12 G 17 10.00 Fair CLR 59 32 36% 29.9 0.0
09 21:55 N 9 10.00 Fair CLR 59 32 36% 29.89 0.0
09 21:35 N 12 10.00 Fair CLR 60.8 33.8 36% 29.87 0.0
09 21:15 N 12 10.00 Fair CLR 64.4 35.6 34% 29.86 0.0
09 20:55 NW 7 10.00 Fair CLR 64.4 37.4 37% 29.85 0.0
09 20:35 NW 5 10.00 Fair CLR 64.4 39.2 40% 29.84 0.0
09 20:15 NW 7 7.00 Fair CLR 64.4 39.2 40% 29.83 0.0
09 19:55 N 9 10.00 Fair CLR 64.4 37.4 37% 29.81 0.0
09 19:35 NW 12 10.00 Fair CLR 64.4 37.4 37% 29.8 0.0
09 19:15 N 10 10.00 Fair CLR 64.4 37.4 37% 29.8 0.0
09 18:55 N 12 10.00 Fair CLR 68 37.4 33% 29.79 0.0
09 18:35 NW 9 10.00 Fair CLR 68 37.4 33% 29.79 0.0
09 18:15 NW 16 G 24 10.00 Fair CLR 68 37.4 33% 29.79 0.0
09 17:55 N 17 G 23 10.00 Fair CLR 68 41 38% 29.78 0.0
09 17:35 N 16 G 22 10.00 Fair CLR 68 41 38% 29.78 0.0
09 17:15 N 16 G 24 10.00 Fair CLR 69.8 41 35% 29.77 0.0
09 16:55 N 17 G 25 10.00 Fair CLR 71.6 39.2 31% 29.76 0.0
09 16:35 NW 9 G 17 10.00 Fair CLR 75.2 33.8 22% 76 29.75 0.0
09 16:15 NW 8 10.00 Fair CLR 73.4 33.8 23% 29.75 0.0
09 15:55 N 10 G 17 10.00 Fair CLR 75.2 33.8 22% 76 29.75 0.0
09 15:35 NW 12 G 24 10.00 Fair CLR 77 32 19% 77 29.75 0.0
09 15:15 NW 18 G 25 10.00 Fair CLR 77 32 19% 77 29.74 0.0
09 14:55 W 16 G 23 10.00 Fair CLR 77 32 19% 77 29.75 0.0
09 14:35 W 9 G 20 10.00 Fair CLR 77 32 19% 77 29.75 0.0
09 14:15 W 16 G 24 10.00 Fair CLR 77 32 19% 77 29.75 0.0
09 13:55 W 15 G 22 10.00 Fair CLR 77 33.8 21% 77 29.75 0.0
09 13:35 W 10 G 22 10.00 Fair CLR 77 32 19% 77 29.74 0.0
09 13:15 W 16 G 23 10.00 Fair CLR 77 32 19% 77 29.74 0.0
09 12:55 W 15 G 22 10.00 Fair CLR 75.2 32 21% 76 29.75 0.0
09 12:35 NW 9 G 24 10.00 Fair CLR 73.4 32 22% 29.75 0.0
09 12:15 NW 14 G 22 10.00 Fair CLR 73.4 35.6 25% 29.75 0.0
09 11:55 W 12 G 23 10.00 Fair CLR 73.4 35.6 25% 29.75 0.0
09 11:35 NW 9 G 18 10.00 Fair CLR 71.6 37.4 29% 29.75 0.0
09 11:15 W 8 G 20 10.00 Fair CLR 71.6 37.4 29% 29.73 0.0
09 10:55 W 8 10.00 Fair CLR 69.8 42.8 38% 29.73 0.0
09 10:35 W 7 10.00 Fair CLR 68 46.4 46% 29.74 0.0
09 10:15 W 7 10.00 Fair CLR 66.2 46.4 49% 29.73 0.0
09 09:55 SW 6 10.00 Fair CLR 64.4 48.2 56% 29.73 0.0
09 09:35 W 6 10.00 Fair CLR 62.6 50 64% 29.73 0.0
09 09:15 NW 6 10.00 Fair CLR 60.8 50 68% 29.73 0.0
09 08:55 W 6 10.00 Fair CLR 59 50 72% 29.73 0.0
09 08:35 W 5 10.00 Fair CLR 57.2 50 77% 29.73 0.0
09 08:15 W 9 10.00 Fair CLR 55.4 51.8 88% 29.73 0.0
09 07:55 W 7 10.00 Fair CLR 53.6 51.8 94% 29.72 0.0
09 07:35 W 9 10.00 Fair CLR 51.8 51.8 100% 29.72 0.0
09 07:15 SW 7 7.00 Fair CLR 50 50 100% 48 29.72 0.0
09 06:55 SW 7 3.00 Fog/Mist CLR 50 48.2 94% 48 29.71 0.0
09 06:35 SW 6 1.50 Fog/Mist VV007 46.4 46.4 100% 44 29.7 0.0
09 06:15 SW 6 0.25 Fog VV002 46.4 44.6 93% 44 29.7 0.0
09 05:55 SW 5 1.00 Fog/Mist VV007 46.4 44.6 93% 45 29.69 0.0
09 05:35 SW 7 2.00 Fog/Mist CLR 46.4 44.6 93% 43 29.69 0.0
09 05:15 SW 8 3.00 Fog/Mist CLR 46.4 46.4 100% 43 29.69 0.0
09 04:55 SW 8 2.50 Fog/Mist CLR 46.4 46.4 100% 43 29.69 0.0
09 04:35 SW 8 3.00 Fog/Mist CLR 46.4 44.6 93% 43 29.7 0.0
09 04:15 SW 7 3.00 Fog/Mist CLR 46.4 46.4 100% 43 29.7 0.0
09 03:55 SW 8 5.00 Fog/Mist CLR 46.4 46.4 100% 43 29.69 0.0
09 03:35 SW 8 7.00 Fair CLR 48.2 46.4 94% 45 29.69 0.0
09 03:15 SW 7 5.00 Fog/Mist CLR 48.2 48.2 100% 46 29.69 0.0
09 02:55 SW 8 5.00 Fog/Mist CLR 48.2 46.4 94% 45 29.7 0.0
09 02:35 SW 8 5.00 Fog/Mist CLR 50 46.4 88% 47 29.7 0.0
09 02:15 SW 8 7.00 Fair CLR 50 48.2 94% 47 29.7 0.0
09 01:55 SW 8 7.00 Fair CLR 50 50 100% 47 29.7 0.0
09 01:35 SW 10 10.00 Fair CLR 51.8 50 94% 29.7 0.0
09 01:15 SW 10 10.00 Fair CLR 51.8 50 94% 29.7 0.0
09 00:55 S 10 10.00 Fair CLR 51.8 50 94% 29.71 0.0
09 00:35 S 9 10.00 Fair CLR 51.8 50 94% 29.72 0.0
09 00:15 SW 9 10.00 Fair CLR 51.8 50 94% 29.72 0.0
08 23:55 SW 12 10.00 Fair CLR 51.8 50 94% 29.73 0.0
08 23:35 SW 12 10.00 Fair CLR 51.8 50 94% 29.73 0.0
08 23:15 SW 10 10.00 Fair CLR 51.8 50 94% 29.74 0.0
08 22:55 SW 10 10.00 Fair CLR 53.6 50 88% 29.74 0.0
08 22:35 SW 10 10.00 Fair CLR 53.6 50 88% 29.74 0.0
08 22:15 SW 9 10.00 Fair CLR 53.6 50 88% 29.74 0.0
08 21:55 SW 9 10.00 Fair CLR 53.6 50 88% 29.73 0.0
08 21:35 S 10 10.00 Fair CLR 55.4 50 82% 29.73 0.0
08 21:15 S 9 10.00 Fair CLR 55.4 50 82% 29.73 0.0
08 20:55 S 9 10.00 Fair CLR 55.4 50 82% 29.72 0.0
08 20:35 S 10 10.00 Fair CLR 57.2 50 77% 29.72 0.0
08 20:15 S 9 10.00 Fair CLR 59 50 72% 29.72 0.0
08 19:55 S 9 10.00 Fair CLR 60.8 50 68% 29.71 0.0
08 19:35 SW 14 10.00 Fair CLR 60.8 50 68% 29.72 0.0
08 19:15 SW 13 10.00 Fair CLR 62.6 50 64% 29.72 0.0
08 18:55 SW 14 10.00 Fair CLR 62.6 48.2 60% 29.73 0.0
08 18:35 SW 17 G 21 10.00 Fair CLR 64.4 48.2 56% 29.73 0.0
08 17:55 SW 12 10.00 Fair CLR 68 42.8 40% 29.73 0.0
08 17:35 W 12 10.00 Fair CLR 68 39.2 35% 29.73 0.0
08 17:15 W 6 10.00 Fair CLR 68 39.2 35% 29.73 0.0
08 16:55 W 9 G 16 10.00 Fair CLR 69.8 39.2 33% 29.73 0.0
08 16:35 W 12 G 16 10.00 Fair CLR 69.8 41 35% 29.73 0.0
08 16:15 W 8 G 16 10.00 Fair CLR 68 37.4 33% 29.74 0.0
08 15:55 S 12 G 16 10.00 Fair CLR 69.8 37.4 31% 29.75 0.0
08 15:35 W 13 G 22 10.00 Fair CLR 69.8 41 35% 29.75 0.0
08 15:15 SW 13 G 17 10.00 Fair CLR 68 44.6 43% 29.77 0.0
08 14:35 SW 12 10.00 Fair CLR 64.4 44.6 49% 29.78 0.0
08 14:15 SW 14 10.00 Fair CLR 64.4 46.4 52% 29.79 0.0
08 13:55 SW 14 G 17 10.00 Fair CLR 64.4 46.4 52% 29.79 0.0
08 13:35 S 12 10.00 Fair CLR 62.6 46.4 56% 29.79 0.0
08 13:15 SW 9 10.00 Fair CLR 62.6 46.4 56% 29.79 0.0
08 12:35 SW 6 10.00 Fair CLR 60.8 46.4 59% 29.8 0.0
08 12:15 SW 9 10.00 Fair CLR 60.8 46.4 59% 29.81 0.0
08 11:55 SW 6 10.00 Fair CLR 59 46.4 63% 29.82 0.0
08 11:35 SW 9 10.00 Fair CLR 59 46.4 63% 29.83 0.0
08 11:15 SW 12 10.00 Fair CLR 59 48.2 68% 29.84 0.0
08 10:55 SW 15 10.00 Fair CLR 57.2 50 77% 29.84 0.0
08 10:35 SW 10 10.00 Fair CLR 55.4 50 82% 29.84 0.0
08 10:15 SW 7 10.00 Fair CLR 55.4 50 82% 29.84 0.0
08 09:55 S 12 10.00 Fair CLR 55.4 50 82% 29.82 0.0
08 09:35 S 12 10.00 Light Rain SCT007 BKN013 BKN019 50 46.4 88% 46 29.84 0.0
08 09:15 SW 9 10.00 Light Rain SCT007 SCT013 SCT018 50 46.4 88% 47 29.85 0.0
08 08:35 SW 3 10.00 Fair CLR 51.8 46.4 82% 29.83 0.0
08 08:15 Calm 10.00 Fair CLR 51.8 44.6 77% 29.84 0.0
08 07:55 Calm 10.00 Fair CLR 50 44.6 82% 29.84 0.0
08 07:35 Calm 10.00 Fair CLR 50 44.6 82% 29.83 0.0
08 07:15 SW 3 10.00 Fair CLR 50 44.6 82% 29.83 0.0
08 06:55 S 3 10.00 Fair CLR 46.4 42.8 87% 29.84 0.0
08 06:35 Calm 10.00 Fair CLR 42.8 42.8 100% 29.82 0.0
08 06:15 Calm 10.00 Fair CLR 41 39.2 93% 29.82 0.0
08 05:55 S 5 10.00 Fair CLR 42.8 41 93% 41 29.82 0.0
08 05:35 Calm 10.00 Fair CLR 42.8 41 93% 29.82 0.0
08 05:15 Calm 10.00 Fair CLR 44.6 42.8 93% 29.82 0.0
08 04:55 S 3 10.00 Fair CLR 42.8 41 93% 29.82 0.0
08 04:35 SE 3 10.00 Fair CLR 44.6 41 87% 29.81 0.0
08 04:15 SE 3 10.00 Fair CLR 44.6 41 87% 29.81 0.0
08 03:55 E 3 10.00 Fair CLR 44.6 41 87% 29.81 0.0
08 03:35 NE 5 10.00 Fair CLR 46.4 42.8 87% 45 29.81 0.0
08 03:15 N 3 10.00 Fair CLR 48.2 42.8 82% 29.81 0.0
08 02:55 Calm 10.00 Fair CLR 51.8 42.8 72% 29.82 0.0
08 02:35 W 6 10.00 Fair CLR 51.8 42.8 72% 29.82 0.0
08 02:15 S 8 10.00 Fair CLR 51.8 42.8 72% 29.81 0.0
08 01:55 S 8 10.00 Fair CLR 50 42.8 76% 47 29.82 0.0
08 01:35 S 7 10.00 Fair CLR 50 44.6 82% 48 29.83 0.0
08 01:15 S 8 10.00 Partly Cloudy SCT070 SCT085 51.8 44.6 77% 29.84 0.0
08 00:55 S 6 10.00 Partly Cloudy SCT070 SCT085 51.8 44.6 77% 29.85 0.0
08 00:35 S 5 10.00 Partly Cloudy SCT070 SCT085 51.8 44.6 77% 29.85 0.0
08 00:15 S 6 10.00 Partly Cloudy SCT070 SCT080 SCT100 51.8 44.6 77% 29.85 0.0
07 23:55 S 6 10.00 Partly Cloudy SCT080 51.8 44.6 77% 29.85 0.0
07 23:35 S 6 10.00 Partly Cloudy SCT080 50 42.8 76% 48 29.86 0.0
07 23:15 S 6 10.00 Partly Cloudy SCT080 51.8 42.8 72% 29.86 0.0
07 22:55 S 7 10.00 Partly Cloudy SCT080 51.8 42.8 72% 29.86 0.0
07 22:35 SE 5 10.00 Fair CLR 51.8 42.8 72% 29.85 0.0
07 22:15 SE 6 10.00 Partly Cloudy SCT085 51.8 44.6 77% 29.85 0.0
07 21:55 SE 7 10.00 Partly Cloudy SCT085 51.8 44.6 77% 29.85 0.0
07 21:35 SE 6 10.00 Partly Cloudy SCT075 51.8 44.6 77% 29.85 0.0
07 21:15 SE 6 10.00 Partly Cloudy SCT075 51.8 44.6 77% 29.85 0.0
07 20:55 SE 6 10.00 Fair CLR 51.8 44.6 77% 29.84 0.0
07 20:35 SE 6 10.00 Fair CLR 53.6 44.6 72% 29.83 0.0
07 20:15 SE 6 10.00 Fair CLR 53.6 46.4 77% 29.83 0.0
07 19:55 SE 7 10.00 Fair CLR 55.4 46.4 72% 29.83 0.0
07 19:35 SE 5 10.00 Fair CLR 59 46.4 63% 29.82 0.0
07 19:15 Calm 10.00 Partly Cloudy SCT013 SCT019 SCT024 59 44.6 59% 29.82 0.0
07 18:55 W 3 10.00 Rain SCT005 SCT013 SCT021 59 46.4 63% 29.84 0.0
07 18:35 SE 6 10.00 Partly Cloudy SCT075 60.8 46.4 59% 29.83 0.0
07 18:15 Calm 10.00 Fair CLR 60.8 42.8 52% 29.83 0.0
07 17:55 Calm 10.00 Rain SCT010 SCT018 SCT085 60.8 42.8 52% 29.84 0.0
07 17:35 Calm 10.00 Fair CLR 62.6 41 45% 29.84 0.0
07 17:15 Calm 7.00 Light Rain SCT009 SCT014 60.8 41 48% 29.84 0.0
07 16:55 W 5 G 9 10.00 Light Rain SCT005 SCT009 SCT014 62.6 37.4 39% 29.84 0.0
07 16:35 W 7 10.00 Light Rain SCT005 SCT009 64.4 39.2 40% 29.84 0.0
07 16:15 NW 6 10.00 Fair CLR 62.6 39.2 42% 29.84 0.0
07 15:55 NW 7 10.00 Partly Cloudy SCT007 SCT016 SCT030 60.8 42.8 52% 29.85 0.0
07 15:35 NW 10 G 37 5.00 Light Rain SCT010 BKN016 BKN028 57.2 39.2 51% 29.87 0.0
07 15:15 SW 16 10.00 Partly Cloudy SCT065 SCT080 62.6 35.6 37% 29.86 0.0
07 14:55 W 13 G 17 10.00 Partly Cloudy SCT065 66.2 35.6 32% 29.86 0.0
07 14:35 W 12 10.00 Fair CLR 64.4 35.6 34% 29.87 0.0
07 14:15 W 13 G 17 10.00 Fair CLR 66.2 35.6 32% 29.88 0.0
07 13:55 W 9 10.00 Partly Cloudy SCT060 62.6 37.4 39% 29.89 0.0
07 13:35 W 9 10.00 Fair CLR 62.6 37.4 39% 29.89 0.0
07 13:15 W 9 10.00 Fair CLR 62.6 37.4 39% 29.9 0.0
07 12:55 NW 8 10.00 Fair CLR 60.8 37.4 42% 29.91 0.0
07 12:35 NW 9 10.00 Fair CLR 60.8 37.4 42% 29.92 0.0
07 12:15 N 9 10.00 Fair CLR 60.8 37.4 42% 29.93 0.0
07 11:55 NW 13 G 16 10.00 Fair CLR 60.8 37.4 42% 29.93 0.0
07 11:35 NW 10 G 17 10.00 Fair CLR 59 37.4 45% 29.95 0.0
07 11:15 W 9 G 18 10.00 Fair CLR 59 37.4 45% 29.94 0.0
07 10:55 NW 10 G 17 10.00 Partly Cloudy SCT045 57.2 35.6 44% 29.95 0.0
07 10:35 NW 12 G 17 10.00 Partly Cloudy SCT045 55.4 35.6 47% 29.95 0.0
07 10:15 NW 10 G 16 10.00 Fair CLR 55.4 35.6 47% 29.95 0.0
07 09:55 NW 10 10.00 Fair CLR 55.4 35.6 47% 29.95 0.0
Date Time (cdt) Wind (mph) Vis. (mi.) Weather Sky Cond. Air Dwpt Max. Min. Relative Humidity Wind Chill (°F) Heat Index (°F) altimeter (in) sea level (mb) 1 hr 3 hr 6 hr
6 hour
Temperature (ºF) Pressure Precipitation (in)